Strona główna
METAR-TAF:

METAR-TAF

Lotnisko :

Caldwell, New Jersey, Stany Zjednoczone

Szerokość geograficzna: 40-52-35N, Długość geograficzna: 074-16-59W, wysokość: 52 m

Aktualna obserwacja pogody

Raport powstał 16 minut temu, godzina 15:29 UTC
Wiatr 4 kt od północny zachód
Temperatura 28°C
Wilgotność 45%
Ciśnienie 1012 hPa
Widzialność: 16.1 km
Mało chmury na wysokości 300 ft

METAR: KCDW 041529Z 32004KT 10SM FEW003 28/15 A2988 RMK AO2 T02780150

czas: 11:45 (15:45 UTC)


TAF: brakujący

Obserwacja i prognoza pogody dla ponad 4000 lotnisk (raport METAR i TAF).

Dostępne stacje oznaczono żółtymi i czerwonymi punktami na mapie.

Najedź kursorem aby zobaczyć nazwę stacji.

Kliknij aby zobaczyć obserwacje i prognozy pogody.

Aby zmienić mapę: kliknij na zielony przycisk z czarnym krzyżykiem, aby powiększyć; na zielony przycisk z myślnikiem, aby pomniejszyć; na zielone strzałki, aby przejść do map sąsiednich.


METAR-TAF: